createdAt,value
2018-05-08T00:00:03.045Z,1001.08
2018-05-08T00:01:03.060Z,1001.09
2018-05-08T00:02:03.053Z,1001.05
2018-05-08T00:03:03.001Z,1001.12
2018-05-08T00:04:03.104Z,1001.05
2018-05-08T00:06:26.243Z,1001.08
2018-05-08T00:07:26.088Z,1001.06
2018-05-08T00:08:25.989Z,1001.04
2018-05-08T00:10:49.006Z,1001.05
2018-05-08T00:13:12.062Z,1001.03
2018-05-08T00:14:12.010Z,1001.02
2018-05-08T00:15:11.998Z,1001.00
2018-05-08T00:17:45.255Z,1000.94
2018-05-08T00:20:08.304Z,1000.90
2018-05-08T00:20:58.473Z,1000.90
2018-05-08T00:21:58.024Z,1000.89
2018-05-08T00:22:58.179Z,1000.85
2018-05-08T00:23:57.985Z,1000.84
2018-05-08T00:24:57.981Z,1000.84
2018-05-08T00:25:57.955Z,1000.83
2018-05-08T00:28:31.102Z,1000.82
2018-05-08T00:29:21.038Z,1000.82
2018-05-08T00:30:20.936Z,1000.77
2018-05-08T00:31:20.959Z,1000.73
2018-05-08T00:33:44.023Z,1000.71
2018-05-08T00:34:43.964Z,1000.69
2018-05-08T00:35:43.916Z,1000.67
2018-05-08T00:36:43.987Z,1000.67
2018-05-08T00:37:43.882Z,1000.66
2018-05-08T00:38:44.068Z,1000.67
2018-05-08T00:39:43.843Z,1000.63
2018-05-08T00:40:43.839Z,1000.63
2018-05-08T00:43:06.923Z,1000.55
2018-05-08T00:44:06.816Z,1000.59
2018-05-08T00:45:06.963Z,1000.56
2018-05-08T00:47:40.065Z,1000.55
2018-05-08T00:48:30.216Z,1000.52
2018-05-08T00:49:30.022Z,1000.54
2018-05-08T00:50:29.827Z,1000.53
2018-05-08T00:51:29.820Z,1000.50
2018-05-08T00:52:29.798Z,1000.54
2018-05-08T00:53:29.785Z,1000.48
2018-05-08T00:54:29.828Z,1000.50
2018-05-08T00:55:29.759Z,1000.53
2018-05-08T00:56:29.804Z,1000.49
2018-05-08T00:58:52.908Z,1000.52
2018-05-08T00:59:52.854Z,1000.50
2018-05-08T01:00:52.818Z,1000.52
2018-05-08T01:01:52.693Z,1000.48
2018-05-08T01:04:26.953Z,1000.42
2018-05-08T01:05:16.834Z,1000.45
2018-05-08T01:06:16.957Z,1000.43
2018-05-08T01:07:16.791Z,1000.43
2018-05-08T01:08:16.768Z,1000.42
2018-05-08T01:10:49.894Z,1000.41
2018-05-08T01:11:39.757Z,1000.40
2018-05-08T01:14:13.912Z,1000.40
2018-05-08T01:15:03.761Z,1000.41
2018-05-08T01:16:03.730Z,1000.42
2018-05-08T01:18:37.417Z,1000.42
2018-05-08T01:19:26.928Z,1000.41
2018-05-08T01:21:51.978Z,1000.39
2018-05-08T01:22:51.580Z,1000.40
2018-05-08T01:23:51.843Z,1000.38
2018-05-08T01:26:14.642Z,1000.39
2018-05-08T01:27:14.555Z,1000.41
2018-05-08T01:28:14.661Z,1000.43
2018-05-08T01:29:14.630Z,1000.43
2018-05-08T01:30:14.529Z,1000.40
2018-05-08T01:31:14.539Z,1000.37
2018-05-08T01:32:14.449Z,1000.42
2018-05-08T01:33:14.895Z,1000.40
2018-05-08T01:34:14.498Z,1000.44
2018-05-08T01:35:14.415Z,1000.39
2018-05-08T01:36:14.486Z,1000.42
2018-05-08T01:37:14.393Z,1000.39
2018-05-08T01:38:14.347Z,1000.41
2018-05-08T01:40:37.414Z,1000.39
2018-05-08T01:41:37.374Z,1000.39
2018-05-08T01:42:37.345Z,1000.37
2018-05-08T01:43:37.338Z,1000.33
2018-05-08T01:44:37.327Z,1000.33
2018-05-08T01:45:37.368Z,1000.32
2018-05-08T01:46:37.268Z,1000.33
2018-05-08T01:47:37.296Z,1000.32
2018-05-08T01:48:37.266Z,1000.32
2018-05-08T01:49:37.258Z,1000.32
2018-05-08T01:50:37.219Z,1000.32
2018-05-08T01:51:37.178Z,1000.30
2018-05-08T01:52:37.194Z,1000.30
2018-05-08T01:53:37.170Z,1000.28
2018-05-08T01:54:37.152Z,1000.25
2018-05-08T01:55:37.114Z,1000.32
2018-05-08T01:56:37.120Z,1000.26
2018-05-08T01:57:37.078Z,1000.29
2018-05-08T01:58:37.080Z,1000.23
2018-05-08T01:59:37.106Z,1000.25
2018-05-08T02:00:37.032Z,1000.26
2018-05-08T02:01:37.040Z,1000.24
2018-05-08T02:02:37.093Z,1000.28
2018-05-08T02:03:37.041Z,1000.24
2018-05-08T02:04:37.002Z,1000.26
2018-05-08T02:05:36.980Z,1000.23
2018-05-08T02:06:37.116Z,1000.25
2018-05-08T02:07:36.964Z,1000.21
2018-05-08T02:08:36.993Z,1000.18
2018-05-08T02:09:36.875Z,1000.18
2018-05-08T02:10:36.885Z,1000.15
2018-05-08T02:11:36.910Z,1000.16
2018-05-08T02:12:36.828Z,1000.13
2018-05-08T02:13:36.832Z,1000.13
2018-05-08T02:14:36.837Z,1000.15
2018-05-08T02:15:36.851Z,1000.13
2018-05-08T02:16:36.794Z,1000.15
2018-05-08T02:17:36.744Z,1000.10
2018-05-08T02:18:36.837Z,1000.15
2018-05-08T02:19:36.731Z,1000.14
2018-05-08T02:20:36.704Z,1000.10
2018-05-08T02:22:59.916Z,1000.11
2018-05-08T02:24:00.003Z,1000.08
2018-05-08T02:24:59.696Z,1000.07
2018-05-08T02:25:59.859Z,1000.07
2018-05-08T02:26:59.723Z,1000.08
2018-05-08T02:27:59.656Z,1000.08
2018-05-08T02:30:32.841Z,1000.07
2018-05-08T02:32:45.760Z,1000.03
2018-05-08T02:33:45.847Z,1000.03
2018-05-08T02:34:45.677Z,1000.04
2018-05-08T02:35:45.632Z,1000.03
2018-05-08T02:36:45.733Z,1000.03
2018-05-08T02:37:45.565Z,1000.02
2018-05-08T02:38:45.558Z,1000.04
2018-05-08T02:39:45.530Z,1000.06
2018-05-08T02:40:45.517Z,1000.06
2018-05-08T02:41:45.542Z,1000.03
2018-05-08T02:42:45.559Z,1000.04
2018-05-08T02:43:45.474Z,1000.04
2018-05-08T02:44:45.438Z,1000.02
2018-05-08T02:45:45.516Z,1000.02
2018-05-08T02:46:45.393Z,1000.05
2018-05-08T02:47:45.404Z,1000.02
2018-05-08T02:48:45.408Z,999.98
2018-05-08T02:49:45.459Z,999.98
2018-05-08T02:50:45.357Z,999.94
2018-05-08T02:51:45.308Z,999.95
2018-05-08T02:52:45.306Z,999.95
2018-05-08T02:53:45.292Z,999.92
2018-05-08T02:54:45.284Z,999.93
2018-05-08T02:55:45.265Z,999.92
2018-05-08T02:56:45.218Z,999.92
2018-05-08T02:57:45.234Z,999.91
2018-05-08T02:58:45.182Z,999.89
2018-05-08T02:59:45.198Z,999.89
2018-05-08T03:00:45.194Z,999.89
2018-05-08T03:01:45.159Z,999.89
2018-05-08T03:02:45.123Z,999.90
2018-05-08T03:03:45.171Z,999.91
2018-05-08T03:04:45.170Z,999.90
2018-05-08T03:05:45.092Z,999.88
2018-05-08T03:06:45.076Z,999.87
2018-05-08T03:07:45.110Z,999.85
2018-05-08T03:08:45.057Z,999.86
2018-05-08T03:09:45.011Z,999.82
2018-05-08T03:10:45.021Z,999.83
2018-05-08T03:11:45.028Z,999.81
2018-05-08T03:12:44.987Z,999.79
2018-05-08T03:13:44.965Z,999.79
2018-05-08T03:14:44.941Z,999.81
2018-05-08T03:15:44.954Z,999.81
2018-05-08T03:16:44.929Z,999.81
2018-05-08T03:17:44.895Z,999.80
2018-05-08T03:18:44.877Z,999.81
2018-05-08T03:19:44.836Z,999.79
2018-05-08T03:20:44.826Z,999.76
2018-05-08T03:21:44.836Z,999.78
2018-05-08T03:22:44.765Z,999.81
2018-05-08T03:23:44.748Z,999.78
2018-05-08T03:24:44.736Z,999.79
2018-05-08T03:25:44.750Z,999.77
2018-05-08T03:26:44.704Z,999.78
2018-05-08T03:27:44.683Z,999.77
2018-05-08T03:28:44.692Z,999.75
2018-05-08T03:29:44.645Z,999.78
2018-05-08T03:30:44.690Z,999.73
2018-05-08T03:31:44.611Z,999.71
2018-05-08T03:32:44.612Z,999.72
2018-05-08T03:33:44.603Z,999.68
2018-05-08T03:34:44.588Z,999.71
2018-05-08T03:37:17.734Z,999.69
2018-05-08T03:38:07.876Z,999.72
2018-05-08T03:39:07.579Z,999.70
2018-05-08T03:40:07.578Z,999.70
2018-05-08T03:41:07.533Z,999.70
2018-05-08T03:42:07.560Z,999.68
2018-05-08T03:43:07.486Z,999.69
2018-05-08T03:44:07.455Z,999.68
2018-05-08T03:45:07.477Z,999.66
2018-05-08T03:46:07.429Z,999.67
2018-05-08T03:47:07.415Z,999.63
2018-05-08T03:48:07.407Z,999.66
2018-05-08T03:49:07.393Z,999.64
2018-05-08T03:50:07.371Z,999.70
2018-05-08T03:51:07.393Z,999.63
2018-05-08T03:52:07.314Z,999.67
2018-05-08T03:53:07.358Z,999.69
2018-05-08T03:54:07.276Z,999.70
2018-05-08T03:55:07.281Z,999.64
2018-05-08T03:56:07.239Z,999.65
2018-05-08T03:57:07.238Z,999.63
2018-05-08T03:58:07.206Z,999.61
2018-05-08T04:00:30.353Z,999.64
2018-05-08T04:01:30.411Z,999.63
2018-05-08T04:02:30.318Z,999.62
2018-05-08T04:04:53.503Z,999.61
2018-05-08T04:05:53.253Z,999.64
2018-05-08T04:08:26.476Z,999.61
2018-05-08T04:09:16.476Z,999.57
2018-05-08T04:11:39.225Z,999.53
2018-05-08T04:12:39.460Z,999.57
2018-05-08T04:15:02.413Z,999.53
2018-05-08T04:16:02.288Z,999.54
2018-05-08T04:17:02.221Z,999.53
2018-05-08T04:18:02.173Z,999.50
2018-05-08T04:20:25.259Z,999.48
2018-05-08T04:21:25.215Z,999.46
2018-05-08T04:22:25.177Z,999.48
2018-05-08T04:23:25.148Z,999.45
2018-05-08T04:24:25.125Z,999.44
2018-05-08T04:26:58.247Z,999.44
2018-05-08T04:29:21.276Z,999.42
2018-05-08T04:30:11.246Z,999.40
2018-05-08T04:31:11.075Z,999.43
2018-05-08T04:32:11.151Z,999.42
2018-05-08T04:33:11.035Z,999.39
2018-05-08T04:34:11.030Z,999.38
2018-05-08T04:36:34.080Z,999.38
2018-05-08T04:37:34.067Z,999.38
2018-05-08T04:38:34.024Z,999.43
2018-05-08T04:39:33.994Z,999.39
2018-05-08T04:40:33.928Z,999.39
2018-05-08T04:41:33.951Z,999.39
2018-05-08T04:42:33.895Z,999.43
2018-05-08T04:43:33.890Z,999.42
2018-05-08T04:44:33.871Z,999.43
2018-05-08T04:45:33.874Z,999.38
2018-05-08T04:46:33.886Z,999.45
2018-05-08T04:47:33.813Z,999.41
2018-05-08T04:48:33.799Z,999.39
2018-05-08T04:49:33.783Z,999.35
2018-05-08T04:50:33.846Z,999.40
2018-05-08T04:51:33.743Z,999.42
2018-05-08T04:52:33.746Z,999.38
2018-05-08T04:53:33.704Z,999.37
2018-05-08T04:54:33.699Z,999.36
2018-05-08T04:55:33.664Z,999.37
2018-05-08T04:56:33.708Z,999.38
2018-05-08T04:57:33.644Z,999.35
2018-05-08T04:58:33.628Z,999.37
2018-05-08T04:59:33.669Z,999.37
2018-05-08T05:00:33.572Z,999.35
2018-05-08T05:01:33.558Z,999.30
2018-05-08T05:02:33.559Z,999.30
2018-05-08T05:03:33.531Z,999.26
2018-05-08T05:04:33.509Z,999.26
2018-05-08T05:05:33.520Z,999.26
2018-05-08T05:06:33.532Z,999.23
2018-05-08T05:07:33.489Z,999.24
2018-05-08T05:08:33.481Z,999.22
2018-05-08T05:09:33.439Z,999.20
2018-05-08T05:10:33.407Z,999.22
2018-05-08T05:11:33.385Z,999.17
2018-05-08T05:12:33.383Z,999.17
2018-05-08T05:13:33.368Z,999.18
2018-05-08T05:14:33.343Z,999.16
2018-05-08T05:15:33.327Z,999.23
2018-05-08T05:16:33.364Z,999.20
2018-05-08T05:17:33.295Z,999.21
2018-05-08T05:18:33.275Z,999.20
2018-05-08T05:19:33.274Z,999.21
2018-05-08T05:20:33.242Z,999.23
2018-05-08T05:21:33.204Z,999.19
2018-05-08T05:22:33.201Z,999.20
2018-05-08T05:23:33.229Z,999.14
2018-05-08T05:24:33.164Z,999.21
2018-05-08T05:25:33.206Z,999.18
2018-05-08T05:26:33.242Z,999.15
2018-05-08T05:27:33.129Z,999.15
2018-05-08T05:28:33.082Z,999.15
2018-05-08T05:29:33.111Z,999.18
2018-05-08T05:30:33.045Z,999.18
2018-05-08T05:31:33.097Z,999.16
2018-05-08T05:32:33.073Z,999.15
2018-05-08T05:33:33.027Z,999.15
2018-05-08T05:34:33.017Z,999.16
2018-05-08T05:35:32.976Z,999.18
2018-05-08T05:36:33.047Z,999.19
2018-05-08T05:37:32.944Z,999.19
2018-05-08T05:38:32.908Z,999.21
2018-05-08T05:39:32.940Z,999.26
2018-05-08T05:40:32.920Z,999.23
2018-05-08T05:41:32.918Z,999.27
2018-05-08T05:42:32.968Z,999.20
2018-05-08T05:43:32.858Z,999.23
2018-05-08T05:44:32.834Z,999.22
2018-05-08T05:45:33.119Z,999.24
2018-05-08T05:46:32.779Z,999.24
2018-05-08T05:47:32.795Z,999.24
2018-05-08T05:48:32.776Z,999.24
2018-05-08T05:49:32.742Z,999.26
2018-05-08T05:50:32.743Z,999.26
2018-05-08T05:51:32.726Z,999.22
2018-05-08T05:52:32.735Z,999.24
2018-05-08T05:53:32.673Z,999.21
2018-05-08T05:54:32.658Z,999.25
2018-05-08T05:55:32.680Z,999.23
2018-05-08T05:56:32.637Z,999.26
2018-05-08T05:57:32.614Z,999.24
2018-05-08T05:58:32.612Z,999.26
2018-05-08T05:59:32.605Z,999.27
2018-05-08T06:00:32.593Z,999.29
2018-05-08T06:01:32.582Z,999.27
2018-05-08T06:02:32.559Z,999.26
2018-05-08T06:03:32.546Z,999.33
2018-05-08T06:04:32.535Z,999.26
2018-05-08T06:05:32.530Z,999.29
2018-05-08T06:06:32.499Z,999.26
2018-05-08T06:07:32.502Z,999.31
2018-05-08T06:08:32.484Z,999.28
2018-05-08T06:09:32.770Z,999.30
2018-05-08T06:10:32.488Z,999.33
2018-05-08T06:11:32.517Z,999.34
2018-05-08T06:12:32.480Z,999.34
2018-05-08T06:13:32.505Z,999.35
2018-05-08T06:14:32.631Z,999.36
2018-05-08T06:15:32.414Z,999.33
2018-05-08T06:16:32.404Z,999.32
2018-05-08T06:17:32.878Z,999.36
2018-05-08T06:18:32.405Z,999.39
2018-05-08T06:19:32.374Z,999.41
2018-05-08T06:20:32.395Z,999.44
2018-05-08T06:21:32.396Z,999.45
2018-05-08T06:22:32.374Z,999.49
2018-05-08T06:23:32.440Z,999.54
2018-05-08T06:24:32.388Z,999.57
2018-05-08T06:25:32.329Z,999.60
2018-05-08T06:26:32.349Z,999.65
2018-05-08T06:27:32.303Z,999.62
2018-05-08T06:28:32.407Z,999.62
2018-05-08T06:29:32.339Z,999.62
2018-05-08T06:30:32.324Z,999.53
2018-05-08T06:31:32.296Z,999.47
2018-05-08T06:32:32.277Z,999.46
2018-05-08T06:33:32.322Z,999.46
2018-05-08T06:34:32.276Z,999.41
2018-05-08T06:35:32.266Z,999.45
2018-05-08T06:36:32.258Z,999.49
2018-05-08T06:37:32.295Z,999.57
2018-05-08T06:38:32.310Z,999.70
2018-05-08T06:39:32.254Z,999.90
2018-05-08T06:40:32.253Z,999.94
2018-05-08T06:41:32.206Z,999.94
2018-05-08T06:42:32.255Z,999.89
2018-05-08T06:43:32.213Z,999.78
2018-05-08T06:44:32.245Z,999.67
2018-05-08T06:45:32.185Z,999.58
2018-05-08T06:46:32.315Z,999.56
2018-05-08T06:47:32.223Z,999.52
2018-05-08T06:48:32.169Z,999.53
2018-05-08T06:49:32.182Z,999.49
2018-05-08T06:50:32.164Z,999.52
2018-05-08T06:51:32.182Z,999.53
2018-05-08T06:52:32.176Z,999.50
2018-05-08T06:53:32.173Z,999.50
2018-05-08T06:54:32.195Z,999.51
2018-05-08T06:55:32.144Z,999.52
2018-05-08T06:56:32.141Z,999.49
2018-05-08T06:57:32.157Z,999.46
2018-05-08T06:58:32.164Z,999.38
2018-05-08T06:59:32.148Z,999.27
2018-05-08T07:00:32.113Z,999.15
2018-05-08T07:01:32.139Z,999.19
2018-05-08T07:02:32.133Z,999.17
2018-05-08T07:03:32.099Z,999.19
2018-05-08T07:04:32.129Z,999.10
2018-05-08T07:05:32.108Z,999.12
2018-05-08T07:06:32.085Z,999.09
2018-05-08T07:07:32.091Z,999.10
2018-05-08T07:08:32.081Z,999.07
2018-05-08T07:09:32.094Z,999.06
2018-05-08T07:10:32.100Z,999.02
2018-05-08T07:11:32.064Z,999.09
2018-05-08T07:12:32.092Z,999.06
2018-05-08T07:13:32.081Z,999.04
2018-05-08T07:14:32.084Z,999.06
2018-05-08T07:15:32.078Z,999.03
2018-05-08T07:16:32.086Z,999.05
2018-05-08T07:17:32.102Z,999.02
2018-05-08T07:18:32.039Z,999.03
2018-05-08T07:19:32.016Z,999.02
2018-05-08T07:20:32.071Z,998.98
2018-05-08T07:21:32.047Z,999.01
2018-05-08T07:22:32.005Z,999.01
2018-05-08T07:23:32.019Z,998.98
2018-05-08T07:24:31.998Z,999.00
2018-05-08T07:25:31.978Z,999.00
2018-05-08T07:26:31.992Z,998.98
2018-05-08T07:27:31.989Z,998.99
2018-05-08T07:28:31.963Z,998.98
2018-05-08T07:29:31.956Z,998.96
2018-05-08T07:30:31.940Z,998.96
2018-05-08T07:31:31.948Z,998.96
2018-05-08T07:32:31.942Z,998.96
2018-05-08T07:33:31.957Z,998.98
2018-05-08T07:34:31.918Z,998.98
2018-05-08T07:35:31.911Z,999.01
2018-05-08T07:36:31.923Z,998.98
2018-05-08T07:37:31.889Z,998.96
2018-05-08T07:38:31.889Z,998.97
2018-05-08T07:39:31.926Z,998.93
2018-05-08T07:40:32.049Z,998.98
2018-05-08T07:41:31.866Z,998.99
2018-05-08T07:42:31.858Z,998.94
2018-05-08T07:43:31.832Z,998.97
2018-05-08T07:44:31.828Z,998.95
2018-05-08T07:45:31.861Z,998.97
2018-05-08T07:46:31.841Z,998.99
2018-05-08T07:47:31.849Z,998.96
2018-05-08T07:48:31.793Z,999.01
2018-05-08T07:49:31.812Z,998.95
2018-05-08T07:50:31.797Z,998.98
2018-05-08T07:51:31.772Z,998.97
2018-05-08T07:52:31.783Z,998.97
2018-05-08T07:53:31.750Z,998.98
2018-05-08T07:54:31.740Z,998.99
2018-05-08T07:55:31.729Z,998.96
2018-05-08T07:56:31.723Z,998.95
2018-05-08T07:57:31.720Z,998.98
2018-05-08T07:58:31.723Z,998.96
2018-05-08T07:59:31.717Z,998.97
2018-05-08T08:00:31.705Z,998.96
2018-05-08T08:01:31.694Z,998.93
2018-05-08T08:02:31.663Z,998.95
2018-05-08T08:03:31.649Z,998.92
2018-05-08T08:04:31.649Z,998.96
2018-05-08T08:05:31.631Z,998.92
2018-05-08T08:06:31.656Z,998.95
2018-05-08T08:07:31.621Z,998.95
2018-05-08T08:08:31.612Z,998.93
2018-05-08T08:09:31.594Z,998.89
2018-05-08T08:10:31.593Z,998.93
2018-05-08T08:11:31.665Z,998.93
2018-05-08T08:12:31.607Z,998.92
2018-05-08T08:13:31.591Z,998.92
2018-05-08T08:14:31.548Z,998.91
2018-05-08T08:15:31.574Z,998.89
2018-05-08T08:16:31.560Z,998.87
2018-05-08T08:17:31.544Z,998.85
2018-05-08T08:18:31.608Z,998.86
2018-05-08T08:19:31.532Z,998.82
2018-05-08T08:20:31.518Z,998.84
2018-05-08T08:21:31.501Z,998.83
2018-05-08T08:22:31.476Z,998.83
2018-05-08T08:23:31.562Z,998.84
2018-05-08T08:24:31.471Z,998.78
2018-05-08T08:25:31.451Z,998.82
2018-05-08T08:26:31.444Z,998.79
2018-05-08T08:27:31.454Z,998.77
2018-05-08T08:28:31.463Z,998.76
2018-05-08T08:29:31.434Z,998.75
2018-05-08T08:30:31.435Z,998.76
2018-05-08T08:31:31.425Z,998.74
2018-05-08T08:32:31.395Z,998.75
2018-05-08T08:33:31.369Z,998.73
2018-05-08T08:34:31.455Z,998.69
2018-05-08T08:35:31.357Z,998.69
2018-05-08T08:36:31.366Z,998.70
2018-05-08T08:37:31.354Z,998.71
2018-05-08T08:38:31.394Z,998.71
2018-05-08T08:39:31.333Z,998.67
2018-05-08T08:40:31.382Z,998.68
2018-05-08T08:41:31.362Z,998.70
2018-05-08T08:42:31.283Z,998.66
2018-05-08T08:43:31.283Z,998.68
2018-05-08T08:44:31.265Z,998.69
2018-05-08T08:45:31.280Z,998.68
2018-05-08T08:46:31.245Z,998.68
2018-05-08T08:47:31.307Z,998.71
2018-05-08T08:48:31.223Z,998.71
2018-05-08T08:49:31.271Z,998.66
2018-05-08T08:50:31.259Z,998.60
2018-05-08T08:51:31.221Z,998.67
2018-05-08T08:52:31.194Z,998.63
2018-05-08T08:53:31.210Z,998.61
2018-05-08T08:54:31.171Z,998.64
2018-05-08T08:55:31.192Z,998.63
2018-05-08T08:56:31.170Z,998.62
2018-05-08T08:57:31.169Z,998.60
2018-05-08T08:58:31.194Z,998.57
2018-05-08T08:59:31.192Z,998.58
2018-05-08T09:00:31.165Z,998.58
2018-05-08T09:01:31.106Z,998.60
2018-05-08T09:02:31.095Z,998.56
2018-05-08T09:03:31.118Z,998.57
2018-05-08T09:04:31.131Z,998.59
2018-05-08T09:05:31.132Z,998.51
2018-05-08T09:06:31.103Z,998.54
2018-05-08T09:07:31.088Z,998.53
2018-05-08T09:08:31.080Z,998.54
2018-05-08T09:09:31.125Z,998.51
2018-05-08T09:10:31.040Z,998.52
2018-05-08T09:11:31.067Z,998.49
2018-05-08T09:12:31.021Z,998.46
2018-05-08T09:13:31.011Z,998.45
2018-05-08T09:14:31.028Z,998.45
2018-05-08T09:15:31.106Z,998.47
2018-05-08T09:16:30.997Z,998.43
2018-05-08T09:17:30.996Z,998.39
2018-05-08T09:18:30.966Z,998.43
2018-05-08T09:19:30.940Z,998.41
2018-05-08T09:20:30.962Z,998.41
2018-05-08T09:21:30.938Z,998.37
2018-05-08T09:22:30.910Z,998.38
2018-05-08T09:23:30.948Z,998.34
2018-05-08T09:24:30.911Z,998.34
2018-05-08T09:25:30.931Z,998.31
2018-05-08T09:26:30.903Z,998.29
2018-05-08T09:27:30.901Z,998.25
2018-05-08T09:28:30.894Z,998.26
2018-05-08T09:29:30.856Z,998.24
2018-05-08T09:30:30.864Z,998.25
2018-05-08T09:31:30.859Z,998.29
2018-05-08T09:32:30.842Z,998.21
2018-05-08T09:33:30.816Z,998.23
2018-05-08T09:34:30.862Z,998.17
2018-05-08T09:35:30.818Z,998.20
2018-05-08T09:36:30.791Z,998.18
2018-05-08T09:37:30.808Z,998.14
2018-05-08T09:38:30.944Z,998.16
2018-05-08T09:39:31.242Z,998.13
2018-05-08T09:40:30.780Z,998.09
2018-05-08T09:41:30.757Z,998.05
2018-05-08T09:42:30.747Z,998.04
2018-05-08T09:43:30.845Z,998.04
2018-05-08T09:44:30.741Z,998.05
2018-05-08T09:45:30.704Z,998.04
2018-05-08T09:46:30.716Z,998.01
2018-05-08T09:47:30.702Z,998.03
2018-05-08T09:48:30.688Z,997.99
2018-05-08T09:49:30.675Z,997.96
2018-05-08T09:50:30.663Z,997.95
2018-05-08T09:51:30.660Z,997.92
2018-05-08T09:52:30.647Z,997.86
2018-05-08T09:53:30.655Z,997.89
2018-05-08T09:54:30.684Z,997.91
2018-05-08T09:55:30.654Z,997.90
2018-05-08T09:56:30.720Z,997.89
2018-05-08T09:57:30.643Z,997.88
2018-05-08T09:58:30.619Z,997.88
2018-05-08T09:59:30.611Z,997.80
2018-05-08T10:00:30.619Z,997.80
2018-05-08T10:01:30.613Z,997.81
2018-05-08T10:02:30.581Z,997.79
2018-05-08T10:03:30.576Z,997.78
2018-05-08T10:04:30.543Z,997.79
2018-05-08T10:05:30.550Z,997.70
2018-05-08T10:06:30.529Z,997.77
2018-05-08T10:07:30.529Z,997.73
2018-05-08T10:08:30.526Z,997.69
2018-05-08T10:11:03.667Z,997.68
2018-05-08T10:11:53.674Z,997.70
2018-05-08T10:12:53.586Z,997.70
2018-05-08T10:13:54.021Z,997.66
2018-05-08T10:16:16.797Z,997.65
2018-05-08T10:17:16.671Z,997.59
2018-05-08T10:18:16.678Z,997.62
2018-05-08T10:19:16.595Z,997.58
2018-05-08T10:20:16.554Z,997.57
2018-05-08T10:21:16.555Z,997.61
2018-05-08T10:22:16.529Z,997.57
2018-05-08T10:23:16.526Z,997.63
2018-05-08T10:24:16.539Z,997.59
2018-05-08T10:25:16.511Z,997.57
2018-05-08T10:26:16.515Z,997.56
2018-05-08T10:27:16.548Z,997.54
2018-05-08T10:28:16.487Z,997.54
2018-05-08T10:29:16.471Z,997.51
2018-05-08T10:30:16.558Z,997.54
2018-05-08T10:31:16.472Z,997.55
2018-05-08T10:32:16.445Z,997.51
2018-05-08T10:33:16.436Z,997.49
2018-05-08T10:34:16.439Z,997.45
2018-05-08T10:35:16.441Z,997.48
2018-05-08T10:36:16.421Z,997.45
2018-05-08T10:37:16.425Z,997.42
2018-05-08T10:38:16.402Z,997.42
2018-05-08T10:39:16.450Z,997.46
2018-05-08T10:40:16.596Z,997.47
2018-05-08T10:41:16.389Z,997.44
2018-05-08T10:42:16.381Z,997.39
2018-05-08T10:43:16.397Z,997.44
2018-05-08T10:44:16.346Z,997.38
2018-05-08T10:45:16.390Z,997.39
2018-05-08T10:46:16.331Z,997.35
2018-05-08T10:47:16.348Z,997.32
2018-05-08T10:48:16.330Z,997.31
2018-05-08T10:49:16.317Z,997.26
2018-05-08T10:50:16.303Z,997.28
2018-05-08T10:51:16.314Z,997.28
2018-05-08T10:52:16.322Z,997.23
2018-05-08T10:53:16.294Z,997.26
2018-05-08T10:54:16.307Z,997.24
2018-05-08T10:55:16.296Z,997.23
2018-05-08T10:56:16.383Z,997.21
2018-05-08T10:57:16.320Z,997.17
2018-05-08T10:59:49.448Z,997.20
2018-05-08T11:00:39.296Z,997.13
2018-05-08T11:01:39.327Z,997.15
2018-05-08T11:02:39.319Z,997.10
2018-05-08T11:03:39.270Z,997.13
2018-05-08T11:04:39.245Z,997.13
2018-05-08T11:05:39.246Z,997.03
2018-05-08T11:06:39.234Z,997.05
2018-05-08T11:09:12.413Z,997.04
2018-05-08T11:10:01.499Z,997.03
2018-05-08T11:11:01.271Z,997.02
2018-05-08T11:12:01.280Z,997.08
2018-05-08T11:13:01.431Z,997.03
2018-05-08T11:14:01.233Z,997.03
2018-05-08T11:15:01.218Z,997.02
2018-05-08T11:16:01.242Z,997.02
2018-05-08T11:17:01.268Z,996.99
2018-05-08T11:18:01.308Z,996.95
2018-05-08T11:19:01.213Z,996.98
2018-05-08T11:20:01.209Z,996.97
2018-05-08T11:21:01.222Z,996.99
2018-05-08T11:22:01.218Z,996.99
2018-05-08T11:23:01.176Z,996.93
2018-05-08T11:24:01.150Z,996.95
2018-05-08T11:25:01.161Z,996.88
2018-05-08T11:26:01.184Z,996.83
2018-05-08T11:27:01.126Z,996.83
2018-05-08T11:28:01.135Z,996.89
2018-05-08T11:29:01.127Z,996.85
2018-05-08T11:30:01.132Z,996.84
2018-05-08T11:31:01.096Z,996.82
2018-05-08T11:32:01.133Z,996.79
2018-05-08T11:33:01.092Z,996.79
2018-05-08T11:34:01.105Z,996.79
2018-05-08T11:35:01.086Z,996.79
2018-05-08T11:36:01.074Z,996.80
2018-05-08T11:37:01.068Z,996.73
2018-05-08T11:38:01.044Z,996.78
2018-05-08T11:39:01.157Z,996.73
2018-05-08T11:40:01.025Z,996.69
2018-05-08T11:41:01.075Z,996.70
2018-05-08T11:42:01.106Z,996.73
2018-05-08T11:43:01.002Z,996.68
2018-05-08T11:44:01.007Z,996.72
2018-05-08T11:45:00.997Z,996.68
2018-05-08T11:46:01.047Z,996.70
2018-05-08T11:47:01.022Z,996.69
2018-05-08T11:48:01.225Z,996.64
2018-05-08T11:49:01.006Z,996.63
2018-05-08T11:50:01.005Z,996.61
2018-05-08T11:51:00.945Z,996.61
2018-05-08T11:52:00.938Z,996.54
2018-05-08T11:53:00.933Z,996.55
2018-05-08T11:55:34.047Z,996.56
2018-05-08T11:56:23.070Z,996.53
2018-05-08T11:57:22.981Z,996.48
2018-05-08T11:58:22.949Z,996.48
2018-05-08T11:59:22.975Z,996.48
2018-05-08T12:00:22.965Z,996.45
2018-05-08T12:01:22.932Z,996.46
2018-05-08T12:02:22.924Z,996.45
2018-05-08T12:03:22.917Z,996.44
2018-05-08T12:04:22.895Z,996.47
2018-05-08T12:05:22.914Z,996.44
2018-05-08T12:06:22.921Z,996.41
2018-05-08T12:07:22.890Z,996.43
2018-05-08T12:08:22.893Z,996.45
2018-05-08T12:09:22.923Z,996.43
2018-05-08T12:10:22.876Z,996.42
2018-05-08T12:11:22.887Z,996.42
2018-05-08T12:12:22.863Z,996.41
2018-05-08T12:13:22.854Z,996.44
2018-05-08T12:14:22.848Z,996.36
2018-05-08T12:15:22.846Z,996.40
2018-05-08T12:16:22.812Z,996.36
2018-05-08T12:17:22.808Z,996.34
2018-05-08T12:18:22.796Z,996.33
2018-05-08T12:19:22.813Z,996.36
2018-05-08T12:20:22.794Z,996.30
2018-05-08T12:21:22.808Z,996.37
2018-05-08T12:22:22.788Z,996.32
2018-05-08T12:23:22.767Z,996.31
2018-05-08T12:24:22.815Z,996.32
2018-05-08T12:25:22.762Z,996.36
2018-05-08T12:26:22.837Z,996.32
2018-05-08T12:27:22.755Z,996.32
2018-05-08T12:28:22.757Z,996.30
2018-05-08T12:29:22.728Z,996.29
2018-05-08T12:30:22.717Z,996.29
2018-05-08T12:31:22.725Z,996.25
2018-05-08T12:32:22.707Z,996.26
2018-05-08T12:33:22.729Z,996.25
2018-05-08T12:34:22.735Z,996.20
2018-05-08T12:35:22.828Z,996.18
2018-05-08T12:36:22.701Z,996.26
2018-05-08T12:37:22.681Z,996.20
2018-05-08T12:38:22.687Z,996.17
2018-05-08T12:39:22.659Z,996.21
2018-05-08T12:40:22.678Z,996.22
2018-05-08T12:41:22.662Z,996.21
2018-05-08T12:42:22.909Z,996.22
2018-05-08T12:43:23.228Z,996.17
2018-05-08T12:44:22.644Z,996.16
2018-05-08T12:45:22.650Z,996.12
2018-05-08T12:46:23.480Z,996.17
2018-05-08T12:47:22.632Z,996.13
2018-05-08T12:48:22.889Z,996.09
2018-05-08T12:49:22.595Z,996.11
2018-05-08T12:50:22.630Z,996.07
2018-05-08T12:51:22.614Z,996.08
2018-05-08T12:52:22.849Z,996.12
2018-05-08T12:53:22.572Z,996.16
2018-05-08T12:54:22.586Z,996.11
2018-05-08T12:55:22.558Z,996.16
2018-05-08T12:56:22.605Z,996.15
2018-05-08T12:57:22.547Z,996.13
2018-05-08T12:58:22.544Z,996.15
2018-05-08T12:59:22.570Z,996.16
2018-05-08T13:00:22.548Z,996.16
2018-05-08T13:01:22.556Z,996.11
2018-05-08T13:02:22.531Z,996.10
2018-05-08T13:03:22.565Z,996.08
2018-05-08T13:04:22.517Z,996.02
2018-05-08T13:05:22.601Z,995.97
2018-05-08T13:06:22.511Z,995.95
2018-05-08T13:07:22.519Z,995.99
2018-05-08T13:08:22.648Z,995.95
2018-05-08T13:09:22.537Z,995.98
2018-05-08T13:10:22.515Z,996.03
2018-05-08T13:11:22.536Z,995.98
2018-05-08T13:12:22.527Z,995.98